createdAt,value
2023-01-04T00:06:48.756Z,7.6
2023-01-04T00:16:50.788Z,7.6
2023-01-04T00:26:53.285Z,7.6
2023-01-04T00:36:56.373Z,7.7
2023-01-04T00:46:57.011Z,7.8
2023-01-04T00:56:59.155Z,8
2023-01-04T01:07:01.197Z,8
2023-01-04T01:17:03.362Z,8.1
2023-01-04T01:27:05.800Z,8.1
2023-01-04T01:37:08.454Z,7.8
2023-01-04T01:47:10.824Z,7.5
2023-01-04T02:07:14.630Z,7.4
2023-01-04T02:47:23.700Z,7.1
2023-01-04T03:17:30.697Z,7.2
2023-01-04T04:27:46.959Z,8
2023-01-04T04:57:53.461Z,8
2023-01-04T05:07:55.382Z,8.1
2023-01-04T05:17:57.438Z,8.1
2023-01-04T05:38:02.473Z,8.2
2023-01-04T05:48:04.466Z,8.4
2023-01-04T05:58:06.431Z,8.5
2023-01-04T06:08:08.054Z,8.6
2023-01-04T06:18:13.470Z,8.7
2023-01-04T06:28:12.784Z,8.9
2023-01-04T06:38:14.396Z,9.1
2023-01-04T06:48:18.017Z,9.1
2023-01-04T06:58:18.810Z,9.1
2023-01-04T07:08:20.947Z,9.1
2023-01-04T07:18:22.837Z,9.2
2023-01-04T07:28:25.035Z,9.3
2023-01-04T07:48:29.662Z,9.6
2023-01-04T07:58:32.148Z,9.6
2023-01-04T08:08:34.443Z,9.7
2023-01-04T08:18:36.213Z,9.9
2023-01-04T08:28:37.946Z,10.1
2023-01-04T08:38:58.535Z,10.2
2023-01-04T08:48:41.780Z,10.3
2023-01-04T08:58:43.745Z,10.6
2023-01-04T09:08:46.189Z,10.6
2023-01-04T09:18:48.709Z,10.5
2023-01-04T09:28:51.361Z,10.5
2023-01-04T09:38:53.843Z,10.6
2023-01-04T09:48:56.039Z,10.6
2023-01-04T09:58:57.754Z,10.6
2023-01-04T10:08:59.873Z,10.8
2023-01-04T10:19:23.708Z,10.8
2023-01-04T10:29:04.482Z,10.8
2023-01-04T10:49:08.555Z,10.5
2023-01-04T10:49:30.540Z,10.5
2023-01-04T10:59:17.983Z,10.5
2023-01-04T11:09:24.994Z,10.6
2023-01-04T11:19:22.815Z,10.7
2023-01-04T11:29:25.307Z,10.6
2023-01-04T11:39:27.565Z,10.6
2023-01-04T11:49:29.722Z,10.5
2023-01-04T11:59:32.321Z,10.5
2023-01-04T12:09:34.330Z,10.6
2023-01-04T12:19:36.607Z,10.6
2023-01-04T12:29:38.751Z,10.7
2023-01-04T12:39:41.265Z,10.7
2023-01-04T12:59:46.217Z,10.7
2023-01-04T13:09:48.624Z,10.9
2023-01-04T13:39:54.899Z,11
2023-01-04T17:10:39.796Z,11.9
2023-01-04T17:20:41.636Z,11.8
2023-01-04T17:30:43.619Z,11.8
2023-01-04T17:40:45.962Z,11.9
2023-01-04T17:50:47.994Z,11.9
2023-01-04T18:00:49.760Z,11.8
2023-01-04T18:11:07.048Z,12
2023-01-04T18:51:00.112Z,11.9
2023-01-04T19:01:02.238Z,12
2023-01-04T19:11:04.005Z,11.9
2023-01-04T19:21:06.646Z,11.9
2023-01-04T19:31:08.698Z,11.8
2023-01-04T19:41:10.918Z,11.8
2023-01-04T19:51:13.182Z,11.7
2023-01-04T20:01:15.515Z,11.7
2023-01-04T20:11:17.400Z,11.7
2023-01-04T20:21:19.796Z,11.6
2023-01-04T20:31:22.039Z,11.7
2023-01-04T20:41:24.084Z,11.7
2023-01-04T20:51:25.891Z,11.7
2023-01-04T21:01:27.929Z,11.6
2023-01-04T21:11:30.109Z,11.6
2023-01-04T21:21:31.782Z,11.3
2023-01-04T21:41:36.481Z,11
2023-01-04T21:51:38.172Z,11
2023-01-04T22:01:40.259Z,11.1
2023-01-04T22:11:42.131Z,11.2
2023-01-04T22:21:44.746Z,11.4
2023-01-04T22:31:46.633Z,11.4
2023-01-04T22:41:48.566Z,11.3
2023-01-04T22:51:50.616Z,11.3
2023-01-04T23:01:53.207Z,11.3
2023-01-04T23:11:55.174Z,11.2
2023-01-04T23:21:57.527Z,11.2
2023-01-04T23:32:00.140Z,11.1
2023-01-04T23:42:03.125Z,11.1
2023-01-04T23:52:04.506Z,11.1
